SWA2579 KBUF-KDFW
Flight info
| Callsign | SWA2579 |
|---|---|
| Flight time | N/A |
| Altitude | 36000 |
| Route | DJB SINKR ELIOE/N0461F380 DEVER PROWL FLP FSM KOMMA RRNET BRDJE5 |
| Aircraft | B737/M-SDE2E3FGHIRWXY/LB1 |
Departure
| Time | 2026-04-29 22:26 |
|---|---|
| Airport | Buffalo Niagara International Airport (KBUF) |
Arrival
| Time | N/A |
|---|---|
| Airport | Dallas Fort Worth International Airport (KDFW) |
| Time | Latitude | Longitude | Altitude | Speed | Heading |
|---|---|---|---|---|---|
| 2026-04-29 20:26 | 42.93419 | -78.73346 | 707 ft | 0 kts | 164° |
| 2026-04-29 22:16 | 42.93437 | -78.73352 | 707 ft | 3 kts | 170° |
| 2026-04-29 22:16 | 42.93458 | -78.73357 | 707 ft | 3 kts | 169° |
| 2026-04-29 22:16 | 42.93474 | -78.73361 | 703 ft | 3 kts | 181° |
| 2026-04-29 22:17 | 42.93487 | -78.73360 | 708 ft | 3 kts | 200° |
| 2026-04-29 22:17 | 42.93508 | -78.73343 | 711 ft | 2 kts | 224° |
| 2026-04-29 22:17 | 42.93508 | -78.73342 | 711 ft | 2 kts | 224° |
| 2026-04-29 22:21 | 42.93504 | -78.73347 | 709 ft | 2 kts | 224° |
| 2026-04-29 22:21 | 42.93504 | -78.73367 | 712 ft | 2 kts | 304° |
| 2026-04-29 22:21 | 42.93518 | -78.73370 | 716 ft | 5 kts | 0° |
| 2026-04-29 22:21 | 42.93595 | -78.73327 | 714 ft | 20 kts | 35° |
| 2026-04-29 22:22 | 42.93724 | -78.73168 | 716 ft | 26 kts | 43° |
| 2026-04-29 22:22 | 42.93850 | -78.73002 | 716 ft | 22 kts | 43° |
| 2026-04-29 22:22 | 42.93852 | -78.72878 | 711 ft | 15 kts | 128° |
| 2026-04-29 22:22 | 42.93789 | -78.72767 | 713 ft | 15 kts | 127° |
| 2026-04-29 22:23 | 42.93729 | -78.72659 | 700 ft | 14 kts | 127° |
| 2026-04-29 22:23 | 42.93665 | -78.72542 | 707 ft | 17 kts | 127° |
| 2026-04-29 22:23 | 42.93586 | -78.72397 | 711 ft | 21 kts | 127° |
| 2026-04-29 22:23 | 42.93494 | -78.72231 | 711 ft | 22 kts | 127° |
| 2026-04-29 22:24 | 42.93474 | -78.72090 | 714 ft | 15 kts | 38° |
| 2026-04-29 22:24 | 42.93541 | -78.72070 | 714 ft | 8 kts | 313° |
| 2026-04-29 22:24 | 42.93551 | -78.72087 | 713 ft | 0 kts | 309° |
| 2026-04-29 22:25 | 42.93554 | -78.72090 | 713 ft | 1 kts | 309° |
| 2026-04-29 22:25 | 42.93558 | -78.72098 | 713 ft | 1 kts | 309° |
| 2026-04-29 22:26 | 42.93597 | -78.72167 | 700 ft | 32 kts | 306° |
| 2026-04-29 22:26 | 42.93898 | -78.72718 | 707 ft | 109 kts | 307° |
| 2026-04-29 22:26 | 42.94473 | -78.73792 | 781 ft | 165 kts | 309° |
| 2026-04-29 22:26 | 42.95186 | -78.75113 | 1495 ft | 179 kts | 310° |
| 2026-04-29 22:27 | 42.96001 | -78.76539 | 2231 ft | 201 kts | 313° |
| 2026-04-29 22:27 | 42.96914 | -78.78108 | 2919 ft | 221 kts | 313° |
| 2026-04-29 22:27 | 42.97889 | -78.79841 | 3578 ft | 242 kts | 311° |
| 2026-04-29 22:27 | 42.99043 | -78.81750 | 3919 ft | 280 kts | 314° |
| 2026-04-29 22:28 | 43.00642 | -78.83757 | 3060 ft | 350 kts | 327° |
| 2026-04-29 22:28 | 43.02527 | -78.85779 | 4508 ft | 335 kts | 313° |
| 2026-04-29 22:28 | 43.03886 | -78.88388 | 5581 ft | 340 kts | 294° |
| 2026-04-29 22:28 | 43.04520 | -78.91455 | 6847 ft | 331 kts | 274° |
| 2026-04-29 22:29 | 43.04438 | -78.94513 | 8309 ft | 316 kts | 260° |
| 2026-04-29 22:29 | 43.03993 | -78.97375 | 9762 ft | 296 kts | 254° |
| 2026-04-29 22:29 | 43.03339 | -78.99967 | 10176 ft | 286 kts | 246° |
| 2026-04-29 22:29 | 43.02447 | -79.02471 | 9339 ft | 300 kts | 243° |
| 2026-04-29 22:30 | 43.01549 | -79.04866 | 9664 ft | 276 kts | 243° |
| 2026-04-29 22:30 | 43.00695 | -79.07148 | 9854 ft | 268 kts | 243° |
| 2026-04-29 22:30 | 42.99905 | -79.09451 | 9869 ft | 272 kts | 243° |
| 2026-04-29 22:30 | 42.98974 | -79.11766 | 9549 ft | 278 kts | 238° |
| 2026-04-29 22:31 | 42.97917 | -79.13990 | 9198 ft | 276 kts | 236° |